Time;durP1;ratioP1;P1;durP2;ratioP2;P2;SDS_P1;SDS_P2;PMS_P1;PMS_P2;Temp;Humidity;BMP_temperature;BMP_pressure;BME280_temperature;BME280_humidity;BME280_pressure;Samples;Min_cycle;Max_cycle;Signal;HPM_P1;HPM_P2
2022/05/09 00:01:50;;;;;;;3.72;1.10;;;19.50;51.30;;;;;;4499001;31;20128;-64
2022/05/09 00:04:16;;;;;;;2.83;1.00;;;19.50;51.30;;;;;;4485810;31;20172;-64
2022/05/09 00:06:42;;;;;;;3.15;1.00;;;19.50;51.20;;;;;;4484915;31;20270;-65
2022/05/09 00:09:08;;;;;;;3.17;0.85;;;19.50;51.20;;;;;;4485240;31;20147;-64
2022/05/09 00:11:34;;;;;;;4.60;0.98;;;19.50;51.20;;;;;;4485253;31;20140;-64
2022/05/09 00:14:01;;;;;;;2.15;0.80;;;19.50;51.20;;;;;;4497700;31;20144;-64
2022/05/09 00:16:33;;;;;;;3.85;1.08;;;19.50;51.20;;;;;;4485752;31;20146;-64
2022/05/09 00:19:08;;;;;;;2.90;1.00;;;19.40;51.20;;;;;;4497806;31;20139;-65
2022/05/09 00:21:37;;;;;;;3.05;0.73;;;19.40;51.10;;;;;;4498441;31;20128;-65
2022/05/09 00:24:03;;;;;;;3.17;0.80;;;19.40;51.20;;;;;;4497949;31;20159;-65
2022/05/09 00:26:32;;;;;;;2.50;0.80;;;19.40;51.20;;;;;;4484910;31;20261;-64
2022/05/09 00:28:59;;;;;;;1.58;0.90;;;19.40;51.20;;;;;;4498400;31;20135;-65
2022/05/09 00:31:26;;;;;;;2.88;1.00;;;19.40;51.20;;;;;;4498513;31;20283;-64
2022/05/09 00:33:52;;;;;;;2.85;0.90;;;19.40;51.20;;;;;;4498465;31;20258;-64
2022/05/09 00:36:18;;;;;;;2.63;0.80;;;19.40;51.20;;;;;;4484347;31;20167;-64
2022/05/09 00:38:49;;;;;;;2.90;0.80;;;19.40;51.20;;;;;;4484961;31;20160;-65
2022/05/09 00:41:34;;;;;;;3.00;1.00;;;19.40;51.20;;;;;;4497828;31;20139;-65
2022/05/09 00:44:03;;;;;;;1.60;0.68;;;19.40;51.20;;;;;;4497564;31;20132;-65
2022/05/09 00:46:30;;;;;;;1.33;0.88;;;19.40;51.20;;;;;;4499624;31;20149;-65
2022/05/09 00:49:04;;;;;;;1.83;0.80;;;19.40;51.20;;;;;;4497279;31;20139;-64
2022/05/09 00:51:32;;;;;;;1.70;0.63;;;19.30;51.20;;;;;;4497997;31;20148;-64
2022/05/09 00:54:02;;;;;;;1.92;0.80;;;19.30;51.20;;;;;;4497304;31;20133;-64
2022/05/09 00:56:35;;;;;;;2.13;0.82;;;19.30;51.20;;;;;;4497373;31;20469;-64
2022/05/09 00:59:03;;;;;;;;;;;19.30;51.20;;;;;;4498745;31;20113;-64
2022/05/09 01:01:30;;;;;;;3.00;0.80;;;19.30;51.20;;;;;;4498216;31;20039;-64
2022/05/09 01:04:02;;;;;;;3.65;0.80;;;19.30;51.20;;;;;;4497919;31;20147;-64
2022/05/09 01:06:28;;;;;;;2.35;0.90;;;19.30;51.20;;;;;;4498178;31;20141;-64
2022/05/09 01:08:54;;;;;;;2.35;0.68;;;19.30;51.20;;;;;;4497501;31;20125;-64
2022/05/09 01:11:23;;;;;;;2.03;0.98;;;19.30;51.20;;;;;;4484283;31;20182;-64
2022/05/09 01:13:57;;;;;;;2.10;0.65;;;19.30;51.30;;;;;;4483861;31;20141;-64
2022/05/09 01:16:25;;;;;;;1.85;1.05;;;19.30;51.20;;;;;;4500860;31;20290;-64
2022/05/09 01:18:52;;;;;;;2.47;0.95;;;19.20;51.20;;;;;;4512577;31;20144;-64
2022/05/09 01:21:31;;;;;;;1.60;0.70;;;19.20;51.20;;;;;;4513240;31;20140;-64
2022/05/09 01:23:57;;;;;;;1.60;0.70;;;19.20;51.20;;;;;;4512752;31;20128;-64
2022/05/09 01:26:23;;;;;;;2.70;1.25;;;19.20;51.20;;;;;;4499753;31;20152;-64
2022/05/09 01:28:49;;;;;;;2.40;0.73;;;19.20;51.10;;;;;;4499917;31;20148;-64
2022/05/09 01:31:18;;;;;;;2.15;0.82;;;19.20;51.20;;;;;;4499405;31;20194;-64
2022/05/09 01:33:50;;;;;;;1.08;0.50;;;19.20;51.20;;;;;;4514638;31;20263;-64
2022/05/09 01:36:28;;;;;;;2.45;0.82;;;19.20;51.20;;;;;;4512546;31;20513;-64
2022/05/09 01:38:59;;;;;;;1.85;0.80;;;19.20;51.20;;;;;;4514329;31;20162;-64
2022/05/09 01:41:27;;;;;;;1.23;0.50;;;19.20;51.20;;;;;;4514041;31;20577;-64
2022/05/09 01:43:55;;;;;;;1.85;0.95;;;19.20;51.20;;;;;;4512612;31;20128;-64
2022/05/09 01:46:26;;;;;;;3.28;0.90;;;19.10;51.20;;;;;;4513219;31;20120;-64
2022/05/09 01:51:40;;;;;;;1.25;0.60;;;19.10;51.20;;;;;;4514130;31;20143;-64
2022/05/09 01:54:07;;;;;;;1.65;0.60;;;19.10;51.10;;;;;;4512534;31;20181;-64
2022/05/09 01:56:36;;;;;;;1.80;0.73;;;19.10;51.20;;;;;;4512023;31;20140;-64
2022/05/09 01:59:06;;;;;;;1.88;0.75;;;19.10;51.10;;;;;;4499751;31;20217;-64
2022/05/09 02:01:46;;;;;;;1.40;0.52;;;19.10;51.10;;;;;;4512319;31;20116;-64
2022/05/09 02:04:13;;;;;;;2.00;0.98;;;19.10;51.10;;;;;;4512736;31;20136;-64
2022/05/09 02:06:40;;;;;;;2.38;0.88;;;19.10;51.10;;;;;;4513027;31;20136;-64
2022/05/09 02:09:06;;;;;;;0.90;0.52;;;19.00;52.00;;;;;;4499455;31;20144;-64
2022/05/09 02:11:33;;;;;;;1.58;0.70;;;19.10;51.20;;;;;;4512064;31;20128;-64
2022/05/09 02:13:59;;;;;;;1.95;0.80;;;19.10;51.20;;;;;;4512097;31;20147;-64
2022/05/09 02:16:25;;;;;;;2.58;0.98;;;19.10;51.20;;;;;;4499954;31;20160;-64
2022/05/09 02:18:51;;;;;;;1.63;0.50;;;19.00;51.10;;;;;;4511670;31;20144;-64
2022/05/09 02:21:17;;;;;;;1.52;0.70;;;19.00;51.10;;;;;;4512666;31;20136;-64
2022/05/09 02:23:43;;;;;;;2.15;0.80;;;19.00;51.10;;;;;;4498749;31;20124;-64
2022/05/09 02:26:10;;;;;;;1.25;0.40;;;19.00;51.10;;;;;;4498985;31;20162;-64
2022/05/09 02:28:36;;;;;;;3.45;0.73;;;19.00;51.10;;;;;;4512362;31;20140;-64
2022/05/09 02:31:02;;;;;;;2.33;0.73;;;19.00;51.10;;;;;;4512054;31;20124;-64
2022/05/09 02:33:28;;;;;;;2.10;0.70;;;19.00;51.10;;;;;;4499636;31;20132;-64
2022/05/09 02:35:55;;;;;;;1.92;0.70;;;19.00;51.10;;;;;;4513044;31;20217;-64
2022/05/09 02:38:24;;;;;;;1.83;0.73;;;19.00;51.10;;;;;;4499322;31;20589;-64
2022/05/09 02:40:52;;;;;;;2.25;0.80;;;19.00;51.10;;;;;;4511783;31;20166;-64
2022/05/09 02:43:17;;;;;;;1.75;0.93;;;19.00;51.10;;;;;;4513461;31;20139;-64
2022/05/09 02:45:44;;;;;;;2.00;0.70;;;19.00;51.10;;;;;;4512203;31;20140;-64
2022/05/09 02:48:10;;;;;;;1.67;0.80;;;18.90;51.00;;;;;;4511846;31;20193;-64
2022/05/09 02:50:37;;;;;;;1.45;0.68;;;18.90;51.00;;;;;;4512848;31;20136;-64
2022/05/09 02:53:03;;;;;;;1.67;0.80;;;18.90;51.00;;;;;;4511520;31;20138;-64
2022/05/09 02:55:31;;;;;;;1.73;0.73;;;18.90;51.00;;;;;;4499383;31;20128;-64
2022/05/09 02:57:58;;;;;;;1.45;0.63;;;18.90;51.00;;;;;;4511587;31;20136;-64
2022/05/09 03:00:26;;;;;;;1.67;0.65;;;18.90;51.00;;;;;;4499092;31;20686;-64
2022/05/09 03:05:40;;;;;;;1.60;0.75;;;18.90;52.00;;;;;;4511783;31;20197;-64
2022/05/09 03:08:08;;;;;;;2.20;0.93;;;18.90;51.00;;;;;;4499389;31;20151;-64
2022/05/09 03:10:34;;;;;;;1.73;0.60;;;18.90;51.00;;;;;;4498286;31;20282;-64
2022/05/09 03:13:02;;;;;;;1.40;0.70;;;18.90;51.00;;;;;;4497256;31;20156;-64
2022/05/09 03:15:29;;;;;;;1.33;0.60;;;18.80;50.90;;;;;;4510003;31;20138;-64
2022/05/09 03:17:55;;;;;;;1.88;0.88;;;18.80;51.00;;;;;;4510153;31;20586;-64
2022/05/09 03:20:22;;;;;;;1.85;0.60;;;18.80;51.00;;;;;;4510695;31;20136;-64
2022/05/09 03:22:49;;;;;;;1.38;0.40;;;18.80;51.00;;;;;;4496118;31;20295;-64
2022/05/09 03:25:16;;;;;;;1.40;0.60;;;18.80;50.90;;;;;;4499895;31;20124;-64
2022/05/09 03:27:42;;;;;;;1.55;0.65;;;18.80;51.00;;;;;;4513035;31;20142;-64
2022/05/09 03:30:09;;;;;;;2.10;0.75;;;18.80;51.00;;;;;;4505577;31;20117;-64
2022/05/09 03:32:35;;;;;;;1.88;0.80;;;18.80;51.00;;;;;;4503201;31;20643;-64
2022/05/09 03:35:03;;;;;;;1.20;0.60;;;18.80;50.90;;;;;;4500782;31;20132;-65
2022/05/09 03:37:30;;;;;;;2.20;0.70;;;18.80;51.00;;;;;;4515280;31;20116;-64
2022/05/09 03:39:56;;;;;;;1.23;0.60;;;18.70;50.90;;;;;;4493613;31;20132;-64
2022/05/09 03:42:22;;;;;;;1.00;0.70;;;18.70;50.90;;;;;;4498746;31;20140;-64
2022/05/09 03:44:48;;;;;;;1.20;0.63;;;18.70;50.90;;;;;;4493397;31;20139;-64
2022/05/09 03:47:15;;;;;;;2.95;0.80;;;18.70;50.90;;;;;;4522702;31;20128;-64
2022/05/09 03:49:41;;;;;;;2.10;0.90;;;18.70;50.90;;;;;;4498013;31;20152;-64
2022/05/09 03:52:07;;;;;;;1.48;0.65;;;18.70;50.90;;;;;;4499095;31;20172;-64
2022/05/09 03:54:33;;;;;;;1.15;0.70;;;18.70;50.90;;;;;;4497692;31;20128;-64
2022/05/09 03:56:59;;;;;;;1.48;0.73;;;18.70;50.90;;;;;;4497544;31;20124;-64
2022/05/09 03:59:25;;;;;;;1.40;0.73;;;18.70;50.90;;;;;;4484792;31;20120;-64
2022/05/09 04:01:52;;;;;;;0.88;0.60;;;18.70;51.00;;;;;;4496870;31;20160;-64
2022/05/09 04:04:18;;;;;;;1.10;0.70;;;18.70;51.00;;;;;;4484383;31;20148;-64
2022/05/09 04:06:43;;;;;;;2.47;0.82;;;18.70;51.00;;;;;;4483868;31;20144;-64
2022/05/09 04:09:09;;;;;;;1.75;0.80;;;18.70;51.00;;;;;;4484292;31;20289;-64
2022/05/09 04:11:35;;;;;;;1.05;0.60;;;18.70;51.00;;;;;;4484375;31;20454;-64
2022/05/09 04:14:01;;;;;;;1.45;0.90;;;18.70;51.00;;;;;;4485827;31;20133;-64
2022/05/09 04:19:12;;;;;;;1.25;0.55;;;18.60;51.00;;;;;;4497948;31;20148;-64
2022/05/09 04:21:38;;;;;;;1.42;0.65;;;18.60;51.00;;;;;;4497216;31;20139;-64
2022/05/09 04:24:04;;;;;;;1.23;0.77;;;18.60;51.00;;;;;;4484809;31;20140;-64
2022/05/09 04:26:31;;;;;;;1.65;0.75;;;18.60;51.00;;;;;;4484810;31;20198;-64
2022/05/09 04:29:01;;;;;;;0.95;0.50;;;18.60;51.10;;;;;;4498528;31;20116;-64
2022/05/09 04:31:28;;;;;;;1.73;0.75;;;18.60;51.00;;;;;;4497402;31;20136;-64
2022/05/09 04:33:55;;;;;;;1.92;0.90;;;18.60;52.10;;;;;;4486682;31;20143;-64
2022/05/09 04:36:28;;;;;;;1.00;0.45;;;18.60;51.00;;;;;;4496511;31;20140;-64
2022/05/09 04:38:55;;;;;;;1.60;0.80;;;18.60;51.00;;;;;;4497102;31;20259;-65
2022/05/09 04:41:22;;;;;;;1.70;0.80;;;18.60;51.10;;;;;;4496817;31;20140;-64
2022/05/09 04:43:48;;;;;;;1.60;0.80;;;18.60;51.10;;;;;;4485480;31;20147;-64
2022/05/09 04:46:15;;;;;;;1.23;0.70;;;18.60;51.10;;;;;;4497340;31;20129;-64
2022/05/09 04:48:43;;;;;;;1.20;0.70;;;18.50;51.00;;;;;;4485029;31;20128;-64
2022/05/09 04:51:10;;;;;;;1.55;0.70;;;18.50;51.00;;;;;;4496941;31;20182;-64
2022/05/09 04:53:37;;;;;;;1.25;0.60;;;18.50;51.00;;;;;;4496160;31;20129;-64
2022/05/09 04:56:04;;;;;;;1.33;0.57;;;18.50;51.00;;;;;;4496270;31;20171;-64
2022/05/09 04:58:30;;;;;;;1.13;0.55;;;18.50;51.00;;;;;;4483522;31;20128;-64
2022/05/09 05:00:56;;;;;;;0.95;0.65;;;18.50;51.00;;;;;;4483164;31;20163;-64
2022/05/09 05:03:25;;;;;;;1.67;0.77;;;18.50;51.00;;;;;;4484227;31;20132;-64
2022/05/09 05:05:52;;;;;;;1.10;0.70;;;18.50;51.00;;;;;;4495928;31;20128;-64
2022/05/09 05:08:18;;;;;;;1.10;0.70;;;18.50;51.00;;;;;;4496801;31;20250;-64
2022/05/09 05:10:44;;;;;;;1.05;0.63;;;18.50;51.00;;;;;;4495919;31;20167;-64
2022/05/09 05:13:12;;;;;;;1.83;0.70;;;18.50;51.00;;;;;;4496612;31;20566;-64
2022/05/09 05:15:39;;;;;;;1.70;0.70;;;18.50;51.00;;;;;;4496518;31;20143;-64
2022/05/09 05:18:05;;;;;;;1.10;0.50;;;18.50;51.00;;;;;;4496048;31;20132;-64
2022/05/09 05:20:31;;;;;;;2.08;0.88;;;18.50;51.00;;;;;;4483579;31;20140;-64
2022/05/09 05:22:57;;;;;;;1.20;0.68;;;18.50;51.00;;;;;;4483588;31;20113;-64
2022/05/09 05:25:27;;;;;;;0.95;0.50;;;18.50;51.00;;;;;;4498541;31;20140;-65
2022/05/09 05:27:53;;;;;;;1.50;0.77;;;18.50;51.00;;;;;;4496568;31;20762;-64
2022/05/09 05:30:20;;;;;;;1.10;0.50;;;18.50;51.00;;;;;;4498295;31;20144;-64
2022/05/09 05:32:47;;;;;;;2.72;0.90;;;18.50;51.00;;;;;;4484035;31;20189;-64
2022/05/09 05:35:16;;;;;;;1.30;0.63;;;18.50;51.00;;;;;;4483885;31;20137;-64
2022/05/09 05:37:43;;;;;;;1.33;0.80;;;18.50;51.10;;;;;;4497706;31;20743;-65
2022/05/09 05:40:10;;;;;;;1.33;0.65;;;18.50;51.00;;;;;;4497466;31;20136;-64
2022/05/09 05:42:41;;;;;;;1.45;0.80;;;18.50;51.00;;;;;;4497307;31;20160;-64
2022/05/09 05:45:09;;;;;;;1.25;0.60;;;18.50;51.00;;;;;;4496317;31;20144;-64
2022/05/09 05:47:35;;;;;;;2.58;0.80;;;18.50;51.00;;;;;;4496823;31;20129;-65
2022/05/09 05:50:03;;;;;;;1.08;0.70;;;18.50;51.00;;;;;;4496854;31;20160;-64
2022/05/09 05:52:28;;;;;;;1.13;0.57;;;18.50;51.00;;;;;;4497511;31;20143;-65
2022/05/09 05:54:54;;;;;;;1.83;0.80;;;18.50;51.00;;;;;;4497405;31;20133;-65
2022/05/09 05:57:26;;;;;;;0.70;0.40;;;18.50;51.00;;;;;;4482607;31;20121;-65
2022/05/09 05:59:57;;;;;;;1.63;0.80;;;18.50;51.00;;;;;;4510186;31;20131;-64
2022/05/09 06:02:24;;;;;;;0.93;0.60;;;18.50;51.00;;;;;;4497544;31;20182;-65
2022/05/09 06:04:51;;;;;;;0.82;0.55;;;18.50;51.10;;;;;;4496653;31;20140;-65
2022/05/09 06:07:18;;;;;;;2.17;0.57;;;18.60;51.10;;;;;;4496865;31;20166;-64
2022/05/09 06:09:46;;;;;;;2.10;0.77;;;18.60;51.20;;;;;;4497396;31;20152;-65
2022/05/09 06:12:14;;;;;;;0.90;0.70;;;18.60;51.10;;;;;;4497088;31;20143;-65
2022/05/09 06:14:41;;;;;;;3.40;0.65;;;18.60;51.10;;;;;;4496155;31;20144;-65
2022/05/09 06:17:08;;;;;;;1.33;0.50;;;18.60;51.00;;;;;;4496902;31;20140;-65
2022/05/09 06:19:34;;;;;;;1.55;0.52;;;18.60;51.10;;;;;;4496135;31;20124;-65
2022/05/09 06:22:01;;;;;;;1.17;0.60;;;18.70;51.10;;;;;;4496422;31;20121;-65
2022/05/09 06:24:28;;;;;;;1.30;0.60;;;18.70;51.20;;;;;;4483541;31;20141;-65
2022/05/09 06:26:54;;;;;;;1.13;0.50;;;18.70;51.20;;;;;;4496412;31;20313;-65
2022/05/09 06:29:20;;;;;;;1.45;0.70;;;18.70;51.20;;;;;;4508637;31;20136;-64
2022/05/09 06:31:46;;;;;;;1.70;0.70;;;18.70;51.30;;;;;;4511085;31;20485;-66
2022/05/09 06:34:13;;;;;;;4.85;1.05;;;18.80;51.40;;;;;;4485324;31;20163;-65
2022/05/09 06:36:41;;;;;;;6.90;1.55;;;18.80;51.30;;;;;;4512612;31;20138;-65
2022/05/09 06:39:09;;;;;;;5.20;1.50;;;18.80;51.40;;;;;;4512309;31;20250;-65
2022/05/09 06:41:36;;;;;;;4.97;1.20;;;18.90;51.50;;;;;;4513534;31;20873;-63
2022/05/09 06:44:02;;;;;;;4.72;1.55;;;18.90;51.50;;;;;;4511686;31;20132;-64
2022/05/09 06:46:28;;;;;;;4.75;1.40;;;19.00;51.50;;;;;;4513563;31;20677;-64
2022/05/09 06:48:54;;;;;;;4.15;1.33;;;19.00;51.60;;;;;;4511692;31;20189;-64
2022/05/09 06:51:19;;;;;;;6.40;1.88;;;19.00;51.60;;;;;;4499126;31;20139;-64
2022/05/09 06:53:46;;;;;;;8.02;1.63;;;19.00;51.80;;;;;;4511630;31;20128;-63
2022/05/09 06:56:12;;;;;;;8.38;1.88;;;19.10;52.00;;;;;;4511948;31;20121;-64
2022/05/09 06:58:39;;;;;;;3.88;1.50;;;19.10;52.00;;;;;;4501742;31;20143;-64
2022/05/09 07:01:13;;;;;;;5.60;1.90;;;19.10;52.10;;;;;;4514693;31;20217;-64
2022/05/09 07:03:43;;;;;;;8.68;2.00;;;19.10;52.20;;;;;;4515539;31;20132;-63
2022/05/09 07:06:10;;;;;;;5.78;1.77;;;19.10;52.20;;;;;;4487687;31;20237;-64
2022/05/09 07:08:37;;;;;;;6.03;1.65;;;19.20;52.10;;;;;;4498869;31;20134;-64
2022/05/09 07:11:05;;;;;;;5.63;1.85;;;19.20;52.10;;;;;;4496687;31;20139;-63
2022/05/09 07:13:31;;;;;;;6.40;2.05;;;19.20;52.10;;;;;;4499764;31;20143;-64
2022/05/09 07:15:57;;;;;;;7.80;2.00;;;19.30;52.10;;;;;;4498622;31;20164;-65
2022/05/09 07:18:27;;;;;;;7.80;2.00;;;19.30;51.90;;;;;;4484593;31;20120;-63
2022/05/09 07:20:53;;;;;;;5.38;1.73;;;19.30;51.90;;;;;;4498749;31;20136;-64
2022/05/09 07:23:19;;;;;;;8.82;1.80;;;19.30;51.80;;;;;;4498671;31;20163;-64
2022/05/09 07:25:45;;;;;;;7.68;1.80;;;19.30;51.80;;;;;;4498308;31;20191;-63
2022/05/09 07:28:13;;;;;;;5.32;1.50;;;19.40;51.80;;;;;;4484573;31;20194;-64
2022/05/09 07:30:41;;;;;;;8.50;2.00;;;19.40;51.80;;;;;;4485306;31;20156;-64
2022/05/09 07:33:10;;;;;;;10.00;2.28;;;19.50;51.80;;;;;;4485353;31;20189;-64
2022/05/09 07:35:35;;;;;;;6.63;1.95;;;19.50;51.70;;;;;;4484749;31;20136;-64
2022/05/09 07:38:02;;;;;;;6.72;1.90;;;19.50;51.60;;;;;;4498415;31;20193;-65
2022/05/09 07:40:27;;;;;;;5.28;1.90;;;19.60;51.60;;;;;;4486536;31;20124;-65
2022/05/09 07:42:54;;;;;;;8.32;1.92;;;19.60;51.50;;;;;;4484901;31;20124;-65
2022/05/09 07:45:21;;;;;;;6.78;2.20;;;19.70;51.60;;;;;;4499303;31;20147;-64
2022/05/09 07:47:47;;;;;;;9.70;2.20;;;19.70;51.40;;;;;;4485196;31;20128;-64
2022/05/09 07:50:16;;;;;;;6.07;1.85;;;19.80;51.40;;;;;;4511036;31;20294;-64
2022/05/09 07:52:42;;;;;;;7.95;1.95;;;19.80;51.40;;;;;;4508389;31;20145;-64
2022/05/09 07:55:11;;;;;;;8.88;1.98;;;19.80;51.30;;;;;;4511070;31;20727;-64
2022/05/09 07:57:37;;;;;;;6.57;2.08;;;19.80;51.20;;;;;;4524831;31;20624;-64
2022/05/09 08:00:05;;;;;;;8.52;1.92;;;19.90;51.20;;;;;;4510643;31;20135;-65
2022/05/09 08:02:32;;;;;;;5.47;2.13;;;19.90;51.10;;;;;;4508869;31;20128;-64
2022/05/09 08:04:59;;;;;;;6.05;1.75;;;20.00;51.10;;;;;;4511592;31;20150;-64
2022/05/09 08:07:25;;;;;;;6.40;2.08;;;20.00;51.10;;;;;;4497769;31;20473;-64
2022/05/09 08:09:51;;;;;;;12.10;2.85;;;20.10;51.00;;;;;;4499890;31;20117;-65
2022/05/09 08:12:17;;;;;;;4.88;1.88;;;20.10;50.90;;;;;;4487318;31;20124;-65
2022/05/09 08:14:43;;;;;;;6.45;1.88;;;20.10;50.80;;;;;;4484173;31;20125;-65
2022/05/09 08:17:09;;;;;;;9.77;2.15;;;20.20;50.70;;;;;;4497933;31;20197;-65
2022/05/09 08:19:38;;;;;;;7.85;2.35;;;20.20;50.60;;;;;;4497524;31;20132;-65
2022/05/09 08:22:06;;;;;;;8.82;1.90;;;20.20;50.40;;;;;;4497359;31;20164;-65
2022/05/09 08:24:32;;;;;;;7.00;2.25;;;20.20;50.40;;;;;;4498261;31;20490;-66
2022/05/09 08:26:58;;;;;;;6.13;1.83;;;20.30;50.30;;;;;;4497241;31;20272;-65
2022/05/09 08:29:24;;;;;;;7.47;1.95;;;20.30;50.20;;;;;;4485416;31;20198;-65
2022/05/09 08:31:50;;;;;;;7.47;2.03;;;20.30;50.00;;;;;;4497576;31;20636;-66
2022/05/09 08:34:16;;;;;;;11.40;2.20;;;20.30;50.00;;;;;;4484921;31;20128;-65
2022/05/09 08:36:53;;;;;;;8.43;2.60;;;20.30;49.90;;;;;;4497562;31;20453;-65
2022/05/09 08:39:20;;;;;;;6.03;1.73;;;20.30;49.90;;;;;;4497850;31;20145;-68
2022/05/09 08:42:01;;;;;;;8.43;2.00;;;20.30;49.80;;;;;;4492815;31;20184;-65
2022/05/09 08:44:37;;;;;;;6.43;2.00;;;20.30;49.60;;;;;;4500120;31;20281;-65
2022/05/09 08:47:27;;;;;;;6.00;2.05;;;20.30;49.50;;;;;;4513792;31;20339;-65
2022/05/09 08:50:05;;;;;;;5.68;1.83;;;20.40;49.40;;;;;;4513764;31;20671;-65
2022/05/09 08:52:34;;;;;;;6.72;1.90;;;20.40;49.50;;;;;;4509460;31;20187;-65
2022/05/09 08:55:01;;;;;;;8.88;2.38;;;20.40;49.40;;;;;;4498985;31;20251;-65
2022/05/09 08:57:47;;;;;;;7.47;2.10;;;20.40;49.30;;;;;;4496490;31;20120;-65
2022/05/09 09:00:16;;;;;;;6.35;2.20;;;20.40;49.00;;;;;;4497557;31;20142;-65
2022/05/09 09:03:14;;;;;;;6.90;2.38;;;20.40;48.90;;;;;;4497491;31;20213;-65
2022/05/09 09:05:42;;;;;;;9.10;2.20;;;20.50;48.40;;;;;;4497038;31;20141;-65
2022/05/09 09:08:29;;;;;;;9.63;2.78;;;20.50;48.60;;;;;;4498002;31;20470;-65
2022/05/09 09:11:10;;;;;;;8.40;2.10;;;20.50;48.10;;;;;;4497267;31;20700;-65
2022/05/09 09:14:11;;;;;;;8.52;2.55;;;20.50;47.90;;;;;;4498206;31;20125;-65
2022/05/09 09:17:06;;;;;;;7.07;1.98;;;20.50;47.80;;;;;;4497651;31;20202;-65
2022/05/09 09:20:06;;;;;;;7.05;1.73;;;20.50;47.50;;;;;;4497063;31;20140;-65
2022/05/09 09:22:50;;;;;;;5.25;1.90;;;20.60;47.30;;;;;;4496497;31;20140;-65
2022/05/09 09:25:40;;;;;;;6.45;2.20;;;20.60;47.20;;;;;;4497649;31;20144;-65
2022/05/09 09:28:15;;;;;;;8.13;2.00;;;20.70;46.90;;;;;;4497702;31;20182;-66
2022/05/09 09:30:42;;;;;;;6.47;2.00;;;20.70;46.70;;;;;;4497069;31;20442;-67
2022/05/09 09:33:12;;;;;;;8.10;2.15;;;20.70;46.30;;;;;;4497320;31;20214;-66
2022/05/09 09:35:48;;;;;;;9.55;2.25;;;20.80;46.10;;;;;;4496563;31;20132;-65
2022/05/09 09:38:35;;;;;;;6.47;2.30;;;20.80;45.60;;;;;;4496967;31;20598;-64
2022/05/09 09:41:35;;;;;;;6.35;1.90;;;20.80;45.60;;;;;;4511161;31;20131;-65
2022/05/09 09:44:13;;;;;;;6.15;2.10;;;20.90;46.20;;;;;;4497097;31;20144;-65
2022/05/09 09:47:02;;;;;;;7.32;1.90;;;20.90;45.30;;;;;;4511284;31;20144;-65
2022/05/09 09:49:28;;;;;;;7.00;2.15;;;20.90;44.90;;;;;;4513589;31;20135;-65
2022/05/09 09:51:54;;;;;;;7.93;2.25;;;20.90;45.00;;;;;;4512653;31;20183;-65
2022/05/09 09:54:25;;;;;;;6.50;1.95;;;21.00;44.80;;;;;;4512837;31;20131;-65
2022/05/09 09:56:50;;;;;;;5.07;1.95;;;21.10;44.40;;;;;;4502469;31;20144;-64
2022/05/09 09:59:29;;;;;;;5.50;1.77;;;21.10;43.70;;;;;;4484232;31;20109;-67
2022/05/09 10:02:16;;;;;;;7.32;1.80;;;21.10;43.40;;;;;;4496393;31;20140;-65
2022/05/09 10:04:43;;;;;;;6.38;2.00;;;21.10;42.80;;;;;;4496800;31;20133;-64
2022/05/09 10:07:14;;;;;;;7.97;2.35;;;21.10;42.90;;;;;;4497431;31;20128;-64
2022/05/09 10:09:40;;;;;;;4.75;1.75;;;21.10;42.80;;;;;;4498038;31;20154;-64
2022/05/09 10:12:26;;;;;;;5.75;1.98;;;21.10;42.80;;;;;;4510474;31;20133;-65
2022/05/09 10:14:53;;;;;;;6.63;1.70;;;21.20;42.80;;;;;;4512157;31;20128;-65
2022/05/09 10:17:25;;;;;;;6.55;2.28;;;21.20;42.70;;;;;;4512298;31;20120;-65
2022/05/09 10:19:53;;;;;;;8.95;2.15;;;21.20;41.80;;;;;;4512372;31;20139;-69
2022/05/09 10:25:17;;;;;;;8.80;2.15;;;21.20;39.70;;;;;;4511109;31;20138;-67
2022/05/09 10:27:44;;;;;;;8.00;2.00;;;21.20;39.90;;;;;;4501296;31;20194;-67
2022/05/09 10:30:24;;;;;;;6.70;2.03;;;21.20;40.00;;;;;;4513354;31;20151;-67
2022/05/09 10:33:24;;;;;;;6.82;2.15;;;21.20;39.40;;;;;;4512919;31;20525;-67
2022/05/09 10:35:55;;;;;;;7.50;2.38;;;21.20;39.60;;;;;;4501153;31;20183;-69
2022/05/09 10:38:32;;;;;;;10.82;2.00;;;21.30;39.90;;;;;;4512327;31;20146;-67
2022/05/09 10:41:09;;;;;;;9.57;2.20;;;21.30;39.80;;;;;;4511431;31;20151;-67
2022/05/09 10:43:57;;;;;;;4.78;1.70;;;21.30;39.90;;;;;;4503978;31;20125;-67
2022/05/09 10:46:42;;;;;;;7.47;1.90;;;21.30;40.00;;;;;;4510951;31;20225;-67
2022/05/09 10:49:18;;;;;;;6.68;1.80;;;21.30;40.10;;;;;;4503716;31;20344;-67
2022/05/09 10:52:07;;;;;;;7.75;1.75;;;21.40;40.30;;;;;;4495870;31;20152;-67
2022/05/09 10:54:54;;;;;;;6.75;1.83;;;21.40;40.20;;;;;;4495928;32;20152;-66
2022/05/09 10:57:34;;;;;;;6.78;1.90;;;21.40;39.70;;;;;;4495419;32;20614;-66
2022/05/09 11:00:21;;;;;;;8.32;1.85;;;21.40;39.70;;;;;;4498499;31;20187;-67
2022/05/09 11:03:13;;;;;;;7.93;2.08;;;21.40;39.70;;;;;;4513274;31;20175;-66
2022/05/09 11:06:09;;;;;;;8.90;2.17;;;21.40;39.20;;;;;;4504507;31;20175;-66
2022/05/09 11:08:42;;;;;;;8.88;1.73;;;21.40;39.20;;;;;;4490653;31;20278;-66
2022/05/09 11:11:26;;;;;;;6.40;1.92;;;21.40;39.20;;;;;;4511917;31;20139;-67
2022/05/09 11:14:23;;;;;;;7.47;2.10;;;21.40;38.90;;;;;;4512547;31;20266;-67
2022/05/09 11:17:01;;;;;;;7.43;2.35;;;21.50;38.50;;;;;;4501750;31;20136;-67
2022/05/09 11:19:48;;;;;;;6.75;2.13;;;21.50;38.80;;;;;;4510848;31;20127;-67
2022/05/09 11:22:19;;;;;;;12.48;2.33;;;21.40;38.40;;;;;;4511668;31;20270;-66
2022/05/09 11:25:19;;;;;;;8.65;2.72;;;21.50;37.90;;;;;;4500842;31;20120;-66
2022/05/09 11:27:50;;;;;;;5.90;2.03;;;21.50;37.40;;;;;;4509147;31;20213;-66
2022/05/09 11:30:19;;;;;;;7.88;2.10;;;21.50;37.30;;;;;;4505267;31;20205;-66
2022/05/09 11:32:46;;;;;;;8.60;2.42;;;21.50;37.20;;;;;;4495466;31;20128;-69
2022/05/09 11:35:35;;;;;;;7.18;1.98;;;21.50;37.30;;;;;;4495447;31;20740;-68
2022/05/09 11:38:19;;;;;;;4.85;1.80;;;21.50;37.20;;;;;;4505936;31;20649;-68
2022/05/09 11:40:51;;;;;;;4.60;1.60;;;21.50;36.90;;;;;;4510102;31;20148;-69
2022/05/09 11:43:38;;;;;;;5.30;1.67;;;21.50;37.20;;;;;;4512211;31;20136;-68
2022/05/09 11:46:19;;;;;;;7.18;1.90;;;21.50;36.80;;;;;;4503743;31;20136;-67
2022/05/09 11:48:54;;;;;;;10.10;2.25;;;21.50;36.80;;;;;;4498320;31;20132;-64
2022/05/09 11:51:42;;;;;;;11.25;2.03;;;21.50;37.20;;;;;;4498874;31;20147;-65
2022/05/09 11:54:17;;;;;;;8.40;2.85;;;21.50;37.30;;;;;;4508031;31;20124;-65
2022/05/09 11:56:48;;;;;;;6.78;2.30;;;21.40;37.00;;;;;;4513431;31;20120;-65
2022/05/09 11:59:32;;;;;;;10.32;2.08;;;21.50;36.60;;;;;;4515010;31;20135;-65
2022/05/09 12:01:58;;;;;;;6.13;1.70;;;21.50;36.00;;;;;;4514214;31;20262;-65
2022/05/09 12:04:47;;;;;;;5.72;1.90;;;21.40;36.30;;;;;;4514307;31;20131;-65
2022/05/09 12:07:28;;;;;;;5.07;1.60;;;21.40;36.10;;;;;;4514664;31;20136;-65
2022/05/09 12:09:57;;;;;;;8.48;2.45;;;21.50;36.40;;;;;;4514796;31;20185;-65
2022/05/09 12:12:41;;;;;;;7.25;1.80;;;21.40;36.70;;;;;;4500758;31;20136;-65
2022/05/09 12:15:33;;;;;;;6.50;1.80;;;21.40;36.70;;;;;;4513819;31;20136;-65
2022/05/09 12:18:00;;;;;;;7.38;1.92;;;21.50;36.80;;;;;;4514630;31;20160;-64
2022/05/09 12:20:27;;;;;;;6.25;2.08;;;21.40;36.80;;;;;;4514587;31;20156;-65
2022/05/09 12:22:56;;;;;;;8.73;2.72;;;21.40;36.90;;;;;;4513311;31;20148;-64
2022/05/09 12:28:03;;;;;;;9.70;2.60;;;21.50;36.40;;;;;;4514373;31;20265;-64
2022/05/09 12:30:43;;;;;;;13.55;2.42;;;21.50;36.70;;;;;;4513791;31;20143;-64
2022/05/09 12:33:32;;;;;;;6.72;2.22;;;21.50;36.40;;;;;;4514173;31;20151;-64
2022/05/09 12:36:04;;;;;;;7.93;2.35;;;21.50;36.60;;;;;;4514459;31;20269;-64
2022/05/09 12:38:35;;;;;;;9.73;2.47;;;21.50;36.90;;;;;;4514086;31;20420;-64
2022/05/09 12:41:08;;;;;;;9.85;2.28;;;21.60;36.90;;;;;;4514899;31;20616;-64
2022/05/09 12:43:36;;;;;;;8.25;2.15;;;21.60;36.60;;;;;;4495692;31;20120;-64
2022/05/09 12:46:04;;;;;;;7.07;2.33;;;21.60;36.70;;;;;;4484783;31;20125;-64
2022/05/09 12:48:30;;;;;;;12.30;2.65;;;21.60;36.60;;;;;;4496998;31;20129;-67
2022/05/09 12:51:05;;;;;;;8.15;2.15;;;21.60;36.50;;;;;;4484891;31;20190;-66
2022/05/09 12:53:35;;;;;;;8.18;2.03;;;21.70;37.00;;;;;;4497111;31;20140;-66
2022/05/09 12:56:09;;;;;;;10.48;2.20;;;21.70;37.20;;;;;;4498400;31;20168;-66
2022/05/09 12:58:41;;;;;;;8.77;2.13;;;21.70;37.30;;;;;;4497798;31;20137;-65
2022/05/09 13:01:18;;;;;;;9.05;2.17;;;21.80;37.40;;;;;;4498336;31;20178;-65
2022/05/09 13:03:56;;;;;;;7.03;1.90;;;21.80;37.60;;;;;;4510972;31;20259;-66
2022/05/09 13:06:25;;;;;;;5.20;1.70;;;21.70;38.10;;;;;;4497177;31;20146;-66
2022/05/09 13:08:52;;;;;;;9.82;1.90;;;21.70;38.60;;;;;;4484394;31;20116;-65
2022/05/09 13:11:23;;;;;;;5.35;1.80;;;21.70;39.20;;;;;;4484543;31;20132;-65
2022/05/09 13:14:00;;;;;;;7.65;2.15;;;21.70;39.90;;;;;;4496861;31;20190;-65
2022/05/09 13:16:35;;;;;;;8.55;2.30;;;21.60;40.60;;;;;;4498839;31;20136;-65
2022/05/09 13:19:01;;;;;;;7.15;2.58;;;21.60;41.00;;;;;;4497101;31;20128;-65